Time;durP1;ratioP1;P1;durP2;ratioP2;P2;SDS_P1;SDS_P2;PMS_P1;PMS_P2;Temp;Humidity;BMP_temperature;BMP_pressure;BME280_temperature;BME280_humidity;BME280_pressure;Samples;Min_cycle;Max_cycle;Signal;HPM_P1;HPM_P2
2022/01/06 00:01:22;;;;;;;8.82;2.88;;;;;;;;;;5045669;28;20104;-82
2022/01/06 00:03:47;;;;;;;12.30;2.55;;;;;;;;;;5035861;28;20463;-80
2022/01/06 00:06:13;;;;;;;14.07;3.30;;;;;;;;;;5042309;28;20215;-83
2022/01/06 00:08:40;;;;;;;9.27;2.88;;;;;;;;;;5037087;28;20022;-80
2022/01/06 00:11:07;;;;;;;10.38;2.53;;;;;;;;;;5036096;28;20077;-82
2022/01/06 00:13:45;;;;;;;15.57;3.38;;;;;;;;;;5013582;28;20026;-83
2022/01/06 00:16:27;;;;;;;8.60;3.05;;;;;;;;;;5030435;28;20082;-83
2022/01/06 00:24:12;;;;;;;8.57;2.65;;;;;;;;;;5035496;28;20056;-82
2022/01/06 00:26:38;;;;;;;12.13;3.13;;;;;;;;;;5039473;28;20263;-82
2022/01/06 00:29:04;;;;;;;6.30;2.85;;;;;;;;;;5040691;28;20033;-80
2022/01/06 00:31:30;;;;;;;5.90;2.75;;;;;;;;;;5034680;28;20028;-82
2022/01/06 00:33:55;;;;;;;7.75;2.90;;;;;;;;;;5036312;28;20485;-83
2022/01/06 00:36:21;;;;;;;12.63;2.83;;;;;;;;;;5035443;28;20109;-81
2022/01/06 00:38:46;;;;;;;5.20;2.88;;;;;;;;;;5034823;28;20105;-85
2022/01/06 00:41:11;;;;;;;9.30;2.67;;;;;;;;;;5025456;28;20017;-84
2022/01/06 00:43:37;;;;;;;5.10;3.20;;;;;;;;;;5033979;28;20022;-84
2022/01/06 00:46:03;;;;;;;9.38;2.88;;;;;;;;;;5039831;28;20038;-82
2022/01/06 00:48:28;;;;;;;8.18;3.08;;;;;;;;;;5032353;28;20514;-84
2022/01/06 00:50:53;;;;;;;6.78;2.70;;;;;;;;;;5023632;28;20081;-82
2022/01/06 00:53:19;;;;;;;9.75;2.40;;;;;;;;;;5010673;28;20031;-82
2022/01/06 00:55:44;;;;;;;6.05;2.40;;;;;;;;;;5029401;28;20025;-83
2022/01/06 00:58:10;;;;;;;11.43;3.10;;;;;;;;;;5034382;28;20032;-82
2022/01/06 01:00:39;;;;;;;9.65;2.97;;;;;;;;;;5031687;28;20044;-81
2022/01/06 01:03:08;;;;;;;7.57;2.70;;;;;;;;;;5035473;28;20048;-83
2022/01/06 01:05:34;;;;;;;6.18;2.55;;;;;;;;;;5008450;28;20036;-82
2022/01/06 01:07:59;;;;;;;4.03;2.58;;;;;;;;;;5028487;28;20526;-81
2022/01/06 01:10:24;;;;;;;7.57;2.92;;;;;;;;;;5033711;28;20013;-81
2022/01/06 01:12:50;;;;;;;6.75;2.55;;;;;;;;;;5033776;28;20395;-83
2022/01/06 01:15:23;;;;;;;6.95;2.58;;;;;;;;;;5035391;28;20052;-81
2022/01/06 01:17:50;;;;;;;14.38;4.25;;;;;;;;;;5017014;28;20032;-82
2022/01/06 01:20:17;;;;;;;4.88;2.40;;;;;;;;;;5023038;28;20020;-82
2022/01/06 01:22:44;;;;;;;7.93;3.15;;;;;;;;;;5031435;28;20044;-83
2022/01/06 01:25:10;;;;;;;15.45;3.22;;;;;;;;;;5040102;28;20108;-82
2022/01/06 01:27:40;;;;;;;6.97;2.83;;;;;;;;;;5038611;28;20558;-81
2022/01/06 01:30:14;;;;;;;6.50;3.08;;;;;;;;;;5027944;28;20037;-82
2022/01/06 01:32:45;;;;;;;8.93;3.20;;;;;;;;;;5010415;28;20037;-83
2022/01/06 01:35:11;;;;;;;13.82;3.50;;;;;;;;;;5027507;28;20083;-82
2022/01/06 01:37:38;;;;;;;5.03;2.70;;;;;;;;;;5008901;28;20562;-83
2022/01/06 01:40:05;;;;;;;10.10;3.03;;;;;;;;;;5020536;28;20083;-83
2022/01/06 01:42:31;;;;;;;8.98;2.75;;;;;;;;;;5026179;28;20036;-82
2022/01/06 01:44:57;;;;;;;3.88;2.30;;;;;;;;;;5025453;28;20021;-82
2022/01/06 01:47:39;;;;;;;7.32;3.00;;;;;;;;;;5023586;28;20071;-84
2022/01/06 01:50:13;;;;;;;6.85;3.28;;;;;;;;;;5007963;28;20068;-82
2022/01/06 01:52:44;;;;;;;8.27;3.08;;;;;;;;;;5014403;28;20037;-83
2022/01/06 01:55:11;;;;;;;5.97;3.00;;;;;;;;;;5025780;28;20295;-82
2022/01/06 01:57:36;;;;;;;10.18;2.88;;;;;;;;;;5021200;28;20483;-83
2022/01/06 02:00:09;;;;;;;10.20;3.20;;;;;;;;;;5025881;28;20072;-82
2022/01/06 02:02:35;;;;;;;10.77;2.72;;;;;;;;;;5022709;28;20042;-82
2022/01/06 02:05:00;;;;;;;9.43;3.28;;;;;;;;;;5029050;28;20033;-81
2022/01/06 02:07:26;;;;;;;5.57;2.72;;;;;;;;;;5025920;28;20034;-82
2022/01/06 02:09:51;;;;;;;3.22;2.50;;;;;;;;;;5006592;28;20611;-82
2022/01/06 02:12:25;;;;;;;7.88;3.28;;;;;;;;;;5028059;28;20017;-83
2022/01/06 02:14:51;;;;;;;6.75;2.53;;;;;;;;;;5025422;28;20045;-82
2022/01/06 02:17:16;;;;;;;5.47;2.75;;;;;;;;;;5013464;28;20091;-83
2022/01/06 02:19:57;;;;;;;9.10;2.90;;;;;;;;;;5033128;28;20029;-82
2022/01/06 02:22:23;;;;;;;12.25;3.25;;;;;;;;;;5022424;28;20475;-83
2022/01/06 02:24:50;;;;;;;8.48;3.25;;;;;;;;;;5007841;28;20092;-83
2022/01/06 02:27:19;;;;;;;9.00;3.20;;;;;;;;;;5018418;28;20037;-82
2022/01/06 02:29:49;;;;;;;7.05;2.60;;;;;;;;;;5029457;28;20029;-82
2022/01/06 02:32:16;;;;;;;10.40;3.72;;;;;;;;;;5025863;28;20033;-82
2022/01/06 02:34:46;;;;;;;5.97;2.38;;;;;;;;;;5023099;28;20383;-82
2022/01/06 02:37:13;;;;;;;7.60;3.08;;;;;;;;;;5030699;28;20030;-81
2022/01/06 02:39:40;;;;;;;7.60;3.30;;;;;;;;;;5031322;28;20034;-82
2022/01/06 02:42:06;;;;;;;6.32;2.90;;;;;;;;;;5025173;28;20030;-82
2022/01/06 02:44:32;;;;;;;6.05;3.05;;;;;;;;;;5025259;28;20542;-84
2022/01/06 02:46:58;;;;;;;10.70;3.35;;;;;;;;;;5027605;28;20059;-83
2022/01/06 02:49:23;;;;;;;7.65;2.83;;;;;;;;;;5004182;28;20026;-83
2022/01/06 02:51:49;;;;;;;8.73;2.92;;;;;;;;;;5070234;23;20052;-85
2022/01/06 02:54:24;;;;;;;7.68;3.60;;;;;;;;;;5025038;28;20025;-85
2022/01/06 02:57:09;;;;;;;;;;;;;;;;;;;;;
2022/01/06 02:59:38;;;;;;;10.20;3.50;;;;;;;;;;5043110;28;20027;-85
2022/01/06 03:02:10;;;;;;;6.32;2.95;;;;;;;;;;5030473;28;20021;-85
2022/01/06 03:04:35;;;;;;;5.68;2.92;;;;;;;;;;5025257;28;20101;-85
2022/01/06 03:07:45;;;;;;;7.50;2.55;;;;;;;;;;5030363;28;20056;-84
2022/01/06 03:10:35;;;;;;;6.28;3.15;;;;;;;;;;5038506;28;20163;-85
2022/01/06 03:13:04;;;;;;;7.95;3.10;;;;;;;;;;5051405;28;20403;-84
2022/01/06 03:15:32;;;;;;;9.57;3.22;;;;;;;;;;5042237;28;20044;-84
2022/01/06 03:21:27;;;;;;;8.93;2.65;;;;;;;;;;5023980;28;20037;-84
2022/01/06 03:24:00;;;;;;;5.68;2.58;;;;;;;;;;5041341;28;20506;-85
2022/01/06 03:26:31;;;;;;;8.82;3.45;;;;;;;;;;5039352;28;20033;-86
2022/01/06 03:29:04;;;;;;;8.25;2.70;;;;;;;;;;5052249;28;20021;-86
2022/01/06 03:31:39;;;;;;;7.00;3.30;;;;;;;;;;5032312;28;20033;-86
2022/01/06 03:34:08;;;;;;;6.35;2.88;;;;;;;;;;5041918;28;20028;-84
2022/01/06 03:36:36;;;;;;;3.55;2.38;;;;;;;;;;5043972;28;20029;-84
2022/01/06 03:39:31;;;;;;;6.50;3.20;;;;;;;;;;5043797;28;20021;-86
2022/01/06 03:42:05;;;;;;;8.60;3.45;;;;;;;;;;5020768;28;20550;-85
2022/01/06 03:44:58;;;;;;;8.10;3.10;;;;;;;;;;5043423;28;20029;-85
2022/01/06 03:47:24;;;;;;;5.97;2.58;;;;;;;;;;5041559;28;20486;-85
2022/01/06 03:49:53;;;;;;;8.77;3.00;;;;;;;;;;5049942;28;20024;-85
2022/01/06 03:52:19;;;;;;;6.25;3.03;;;;;;;;;;5040738;28;20025;-85
2022/01/06 03:54:55;;;;;;;9.80;3.30;;;;;;;;;;5043048;28;20021;-85
2022/01/06 03:57:20;;;;;;;5.55;3.20;;;;;;;;;;5042692;28;20078;-84
2022/01/06 03:59:49;;;;;;;5.15;3.17;;;;;;;;;;5065047;28;20112;-84
2022/01/06 04:02:14;;;;;;;7.28;3.03;;;;;;;;;;5041680;28;20025;-83
2022/01/06 04:04:42;;;;;;;5.22;2.88;;;;;;;;;;5041934;28;20031;-85
2022/01/06 04:07:08;;;;;;;4.28;2.53;;;;;;;;;;5060129;28;20024;-84
2022/01/06 04:09:35;;;;;;;5.95;2.75;;;;;;;;;;5059050;28;20025;-85
2022/01/06 04:12:04;;;;;;;7.38;3.10;;;;;;;;;;5058519;28;20028;-85
2022/01/06 04:14:30;;;;;;;6.38;3.05;;;;;;;;;;5061256;28;20455;-84
2022/01/06 04:17:00;;;;;;;7.28;3.15;;;;;;;;;;5079568;28;20048;-85
2022/01/06 04:19:28;;;;;;;12.13;3.58;;;;;;;;;;5061468;28;20374;-84
2022/01/06 04:21:56;;;;;;;4.60;2.22;;;;;;;;;;5044022;28;20410;-85
2022/01/06 04:24:22;;;;;;;8.40;3.33;;;;;;;;;;5062409;28;20027;-84
2022/01/06 04:26:56;;;;;;;7.07;2.88;;;;;;;;;;5061310;28;20020;-83
2022/01/06 04:29:24;;;;;;;12.20;3.75;;;;;;;;;;5052277;28;20100;-85
2022/01/06 04:32:12;;;;;;;8.07;3.45;;;;;;;;;;5041181;28;20028;-84
2022/01/06 04:34:40;;;;;;;7.88;3.38;;;;;;;;;;5043504;28;20039;-85
2022/01/06 04:37:05;;;;;;;8.68;2.83;;;;;;;;;;5042385;28;20029;-83
2022/01/06 04:39:31;;;;;;;9.90;3.13;;;;;;;;;;5068583;28;20027;-84
2022/01/06 04:41:59;;;;;;;7.72;3.00;;;;;;;;;;5079742;28;20028;-84
2022/01/06 04:44:34;;;;;;;6.10;3.03;;;;;;;;;;5077368;28;20029;-84
2022/01/06 04:47:02;;;;;;;5.60;3.53;;;;;;;;;;5061215;28;20073;-84
2022/01/06 04:50:21;;;;;;;6.97;3.05;;;;;;;;;;5061918;28;20077;-87
2022/01/06 04:52:49;;;;;;;11.30;3.33;;;;;;;;;;5061490;28;20479;-85
2022/01/06 04:55:15;;;;;;;7.75;2.97;;;;;;;;;;5060842;28;20031;-86
2022/01/06 04:57:44;;;;;;;9.98;3.13;;;;;;;;;;5079254;28;20024;-85
2022/01/06 05:00:10;;;;;;;8.15;3.35;;;;;;;;;;5063991;28;20330;-84
2022/01/06 05:02:39;;;;;;;6.90;2.90;;;;;;;;;;5063092;28;20020;-84
2022/01/06 05:05:05;;;;;;;7.68;3.10;;;;;;;;;;5062640;28;20028;-84
2022/01/06 05:07:45;;;;;;;8.77;3.33;;;;;;;;;;5072337;28;20433;-84
2022/01/06 05:10:16;;;;;;;7.38;2.95;;;;;;;;;;5059682;28;20366;-84
2022/01/06 05:13:24;;;;;;;6.45;2.92;;;;;;;;;;5044522;28;20455;-84
2022/01/06 05:16:32;;;;;;;8.77;3.35;;;;;;;;;;5044054;28;20028;-84
2022/01/06 05:19:38;;;;;;;8.60;3.45;;;;;;;;;;5065263;28;20033;-85
2022/01/06 05:22:36;;;;;;;6.45;2.78;;;;;;;;;;5041915;28;20060;-84
2022/01/06 05:31:45;;;;;;;9.30;3.40;;;;;;;;;;5065042;28;20028;-86
2022/01/06 05:38:08;;;;;;;;;;;;;;;;;;;;;
2022/01/06 05:41:10;;;;;;;7.53;2.75;;;;;;;;;;5068755;28;20036;-84
2022/01/06 05:44:01;;;;;;;11.88;2.92;;;;;;;;;;5045870;28;20025;-83
2022/01/06 05:46:32;;;;;;;6.57;2.95;;;;;;;;;;5038397;28;20040;-86
2022/01/06 05:48:58;;;;;;;5.55;2.50;;;;;;;;;;5048075;28;20031;-82
2022/01/06 05:51:33;;;;;;;9.80;3.30;;;;;;;;;;5051850;28;20553;-84
2022/01/06 05:54:12;;;;;;;10.40;3.25;;;;;;;;;;5059710;28;20054;-82
2022/01/06 05:56:38;;;;;;;6.95;3.03;;;;;;;;;;5062121;28;20086;-85
2022/01/06 05:59:21;;;;;;;8.70;3.33;;;;;;;;;;5059027;28;20433;-84
2022/01/06 06:02:05;;;;;;;6.50;3.10;;;;;;;;;;5061817;28;20140;-83
2022/01/06 06:10:17;;;;;;;10.52;3.53;;;;;;;;;;5058330;28;20430;-85
2022/01/06 06:12:58;;;;;;;9.90;3.25;;;;;;;;;;5053338;28;20506;-85
2022/01/06 06:15:38;;;;;;;5.70;2.88;;;;;;;;;;5053216;28;20439;-84
2022/01/06 06:18:14;;;;;;;6.53;2.80;;;;;;;;;;5038260;28;20028;-84
2022/01/06 06:21:13;;;;;;;7.45;2.85;;;;;;;;;;5046103;28;20017;-85
2022/01/06 06:23:39;;;;;;;9.35;2.90;;;;;;;;;;5058362;28;20052;-84
2022/01/06 06:26:11;;;;;;;7.28;2.97;;;;;;;;;;5049497;28;20498;-85
2022/01/06 06:28:51;;;;;;;6.97;2.85;;;;;;;;;;5058594;28;20494;-85
2022/01/06 06:31:20;;;;;;;10.82;3.28;;;;;;;;;;5058390;28;20386;-84
2022/01/06 06:33:57;;;;;;;5.05;2.85;;;;;;;;;;5078445;28;20024;-85
2022/01/06 06:36:23;;;;;;;8.65;3.17;;;;;;;;;;5080664;28;20477;-84
2022/01/06 06:38:51;;;;;;;9.07;3.72;;;;;;;;;;5080290;28;20027;-84
2022/01/06 06:41:22;;;;;;;14.40;3.63;;;;;;;;;;5081119;28;20028;-84
2022/01/06 06:44:08;;;;;;;12.55;3.00;;;;;;;;;;5079694;28;20149;-83
2022/01/06 06:46:36;;;;;;;10.02;3.05;;;;;;;;;;5062058;28;20020;-84
2022/01/06 06:49:07;;;;;;;9.70;3.58;;;;;;;;;;5080268;28;20028;-84
2022/01/06 06:51:35;;;;;;;7.65;3.40;;;;;;;;;;5061902;28;20090;-85
2022/01/06 06:54:01;;;;;;;8.52;3.53;;;;;;;;;;5062215;28;20386;-84
2022/01/06 06:56:29;;;;;;;6.38;3.53;;;;;;;;;;5062514;28;20490;-85
2022/01/06 06:59:03;;;;;;;17.73;2.95;;;;;;;;;;5080063;28;20020;-85
2022/01/06 07:01:29;;;;;;;9.45;3.08;;;;;;;;;;5059682;28;20016;-84
2022/01/06 07:03:56;;;;;;;5.22;2.45;;;;;;;;;;5069360;28;20090;-85
2022/01/06 07:06:28;;;;;;;7.05;3.08;;;;;;;;;;5048945;28;20037;-85
2022/01/06 07:08:57;;;;;;;11.77;2.70;;;;;;;;;;5041587;28;20036;-85
2022/01/06 07:11:28;;;;;;;11.20;3.63;;;;;;;;;;5042221;28;20036;-85
2022/01/06 07:13:53;;;;;;;9.38;3.55;;;;;;;;;;5060111;28;20192;-86
2022/01/06 07:16:22;;;;;;;11.80;3.63;;;;;;;;;;5043518;28;20048;-84
2022/01/06 07:18:48;;;;;;;9.23;3.67;;;;;;;;;;5038548;28;20021;-85
2022/01/06 07:21:23;;;;;;;7.93;3.85;;;;;;;;;;5042655;28;20028;-85
2022/01/06 07:23:52;;;;;;;9.18;4.20;;;;;;;;;;5066770;28;20471;-85
2022/01/06 07:26:18;;;;;;;9.55;3.42;;;;;;;;;;5046279;28;20563;-85
2022/01/06 07:28:50;;;;;;;10.27;3.28;;;;;;;;;;5044992;28;20509;-85
2022/01/06 07:31:15;;;;;;;7.88;3.45;;;;;;;;;;5059278;28;20021;-85
2022/01/06 07:33:41;;;;;;;6.13;3.17;;;;;;;;;;5040990;28;20032;-85
2022/01/06 07:36:07;;;;;;;6.82;3.35;;;;;;;;;;5067944;28;20490;-85
2022/01/06 07:38:35;;;;;;;10.52;4.30;;;;;;;;;;5037623;28;20025;-85
2022/01/06 07:41:00;;;;;;;10.85;3.63;;;;;;;;;;5025459;28;20033;-85
2022/01/06 07:43:26;;;;;;;11.50;3.95;;;;;;;;;;5040815;28;20021;-84
2022/01/06 07:45:51;;;;;;;11.00;3.35;;;;;;;;;;5058807;28;20048;-84
2022/01/06 07:48:25;;;;;;;8.88;3.15;;;;;;;;;;5041780;28;20060;-84
2022/01/06 07:50:59;;;;;;;8.25;3.35;;;;;;;;;;5040900;28;20029;-84
2022/01/06 07:53:25;;;;;;;13.20;3.90;;;;;;;;;;5033672;28;20517;-84
2022/01/06 07:55:50;;;;;;;16.35;3.83;;;;;;;;;;5031394;28;20104;-83
2022/01/06 07:58:16;;;;;;;13.20;3.97;;;;;;;;;;5050430;28;20020;-84
2022/01/06 08:00:41;;;;;;;13.02;4.63;;;;;;;;;;5021781;28;20022;-83
2022/01/06 08:03:07;;;;;;;8.90;3.63;;;;;;;;;;5068620;28;20033;-83
2022/01/06 08:05:32;;;;;;;7.90;3.83;;;;;;;;;;5048025;28;20040;-83
2022/01/06 08:07:57;;;;;;;6.15;3.03;;;;;;;;;;5068964;28;20040;-84
2022/01/06 08:10:24;;;;;;;9.30;3.95;;;;;;;;;;5069284;28;20038;-82
2022/01/06 08:12:49;;;;;;;10.35;4.00;;;;;;;;;;5063752;28;20005;-82
2022/01/06 08:15:15;;;;;;;5.85;3.65;;;;;;;;;;5036710;28;20104;-83
2022/01/06 08:17:49;;;;;;;8.77;3.60;;;;;;;;;;5050759;28;20033;-85
2022/01/06 08:20:14;;;;;;;7.35;3.45;;;;;;;;;;5071394;28;20088;-82
2022/01/06 08:22:39;;;;;;;11.93;4.20;;;;;;;;;;5071024;28;20032;-84
2022/01/06 08:25:07;;;;;;;11.93;3.70;;;;;;;;;;5065115;28;20051;-82
2022/01/06 08:27:33;;;;;;;8.23;3.55;;;;;;;;;;5066654;28;20033;-82
2022/01/06 08:29:58;;;;;;;13.70;4.10;;;;;;;;;;5050252;28;20126;-82
2022/01/06 08:32:23;;;;;;;9.02;4.18;;;;;;;;;;5072022;28;20028;-82
2022/01/06 08:34:49;;;;;;;11.55;4.10;;;;;;;;;;5052921;28;20093;-83
2022/01/06 08:37:15;;;;;;;10.13;4.13;;;;;;;;;;5063617;28;20017;-84
2022/01/06 08:39:41;;;;;;;10.30;4.15;;;;;;;;;;5072259;28;20105;-82
2022/01/06 08:42:06;;;;;;;9.18;3.47;;;;;;;;;;5071560;28;20084;-82
2022/01/06 08:44:32;;;;;;;11.45;4.85;;;;;;;;;;5054878;28;20040;-82
2022/01/06 08:47:00;;;;;;;9.40;4.15;;;;;;;;;;5054696;28;20029;-82
2022/01/06 08:49:26;;;;;;;12.05;3.60;;;;;;;;;;5068342;28;20025;-82
2022/01/06 08:51:52;;;;;;;9.15;4.25;;;;;;;;;;5042882;28;20028;-84
2022/01/06 08:54:17;;;;;;;9.40;4.28;;;;;;;;;;5054119;28;20106;-83
2022/01/06 08:56:42;;;;;;;8.75;4.35;;;;;;;;;;5046687;28;20027;-83
2022/01/06 08:59:08;;;;;;;13.40;4.80;;;;;;;;;;5045491;28;20016;-83
2022/01/06 09:01:34;;;;;;;10.60;4.43;;;;;;;;;;5039302;28;20042;-83
2022/01/06 09:03:59;;;;;;;7.18;3.30;;;;;;;;;;5037262;28;20021;-82
2022/01/06 09:06:24;;;;;;;10.15;3.92;;;;;;;;;;5056263;28;20025;-82
2022/01/06 09:08:50;;;;;;;12.93;4.45;;;;;;;;;;5056108;28;20052;-83
2022/01/06 09:11:15;;;;;;;10.75;4.07;;;;;;;;;;5038568;28;20021;-82
2022/01/06 09:13:41;;;;;;;9.88;4.10;;;;;;;;;;5034258;28;20032;-83
2022/01/06 09:16:08;;;;;;;6.97;3.55;;;;;;;;;;5048605;28;20699;-84
2022/01/06 09:18:35;;;;;;;9.82;4.05;;;;;;;;;;5037413;28;20029;-84
2022/01/06 09:21:07;;;;;;;12.27;4.45;;;;;;;;;;5038378;28;20055;-84
2022/01/06 09:23:33;;;;;;;;;;;;;;;;;;5055519;28;20113;-84
2022/01/06 09:25:58;;;;;;;7.03;3.17;;;;;;;;;;5029973;28;19952;-83
2022/01/06 09:28:24;;;;;;;5.65;2.90;;;;;;;;;;5027286;28;20386;-84
2022/01/06 09:30:51;;;;;;;5.55;3.20;;;;;;;;;;5037295;28;20029;-83
2022/01/06 09:33:20;;;;;;;8.48;3.70;;;;;;;;;;5023655;28;20110;-83
2022/01/06 09:35:46;;;;;;;7.97;3.33;;;;;;;;;;5044311;28;20390;-84
2022/01/06 09:38:13;;;;;;;5.28;3.28;;;;;;;;;;5047919;28;20025;-84
2022/01/06 09:40:40;;;;;;;9.50;3.13;;;;;;;;;;5057783;28;20052;-83
2022/01/06 09:43:06;;;;;;;9.82;3.60;;;;;;;;;;5055202;28;20029;-84
2022/01/06 09:45:32;;;;;;;5.15;2.85;;;;;;;;;;5035310;28;20020;-83
2022/01/06 09:47:58;;;;;;;11.43;3.63;;;;;;;;;;5052692;28;20445;-85
2022/01/06 09:50:24;;;;;;;8.43;3.25;;;;;;;;;;5055908;28;20475;-85
2022/01/06 09:52:51;;;;;;;9.13;3.83;;;;;;;;;;5036764;28;20039;-83
2022/01/06 09:55:16;;;;;;;8.77;3.17;;;;;;;;;;5029802;28;20487;-83
2022/01/06 09:57:57;;;;;;;10.82;3.35;;;;;;;;;;5026565;28;20124;-83
2022/01/06 10:00:24;;;;;;;9.80;3.50;;;;;;;;;;5050016;28;20441;-83
2022/01/06 10:03:01;;;;;;;7.93;2.90;;;;;;;;;;5054359;28;20017;-83
2022/01/06 10:05:38;;;;;;;11.05;3.72;;;;;;;;;;5045681;28;20048;-83
2022/01/06 10:08:05;;;;;;;7.43;3.33;;;;;;;;;;5049362;28;20033;-84
2022/01/06 10:10:30;;;;;;;13.52;3.50;;;;;;;;;;5035887;28;20071;-84
2022/01/06 10:12:58;;;;;;;6.70;3.13;;;;;;;;;;5062513;28;20025;-84
2022/01/06 10:15:26;;;;;;;14.95;3.67;;;;;;;;;;5044771;28;20441;-85
2022/01/06 10:17:53;;;;;;;7.30;3.05;;;;;;;;;;5043673;28;20043;-85
2022/01/06 10:20:21;;;;;;;10.00;3.28;;;;;;;;;;5062679;28;20072;-86
2022/01/06 10:22:53;;;;;;;7.38;3.05;;;;;;;;;;5043794;28;20041;-86
2022/01/06 10:25:20;;;;;;;21.73;4.03;;;;;;;;;;5043729;28;20116;-85
2022/01/06 10:27:46;;;;;;;6.78;3.15;;;;;;;;;;5040117;28;20460;-85
2022/01/06 10:30:13;;;;;;;8.13;3.38;;;;;;;;;;5061113;28;20129;-86
2022/01/06 10:32:39;;;;;;;5.72;2.50;;;;;;;;;;5034767;28;20390;-85
2022/01/06 10:35:08;;;;;;;7.13;2.40;;;;;;;;;;5042549;28;20028;-85
2022/01/06 10:37:44;;;;;;;10.25;3.25;;;;;;;;;;5042718;28;20043;-84
2022/01/06 10:40:16;;;;;;;5.50;2.55;;;;;;;;;;5060221;28;20386;-85
2022/01/06 10:42:46;;;;;;;6.53;2.63;;;;;;;;;;5060774;28;20029;-85
2022/01/06 10:45:17;;;;;;;10.38;2.47;;;;;;;;;;5049875;28;20474;-85
2022/01/06 10:47:46;;;;;;;6.25;2.63;;;;;;;;;;5059473;28;20390;-84
2022/01/06 10:50:25;;;;;;;10.68;2.95;;;;;;;;;;5039677;28;20036;-85
2022/01/06 10:52:56;;;;;;;4.53;2.50;;;;;;;;;;5056734;28;20056;-85
2022/01/06 10:55:35;;;;;;;12.98;2.78;;;;;;;;;;5056069;28;20029;-85
2022/01/06 11:01:33;;;;;;;13.13;5.57;;;;;;;;;;5042999;23;20089;-82
2022/01/06 11:03:58;;;;;;;15.88;6.22;;;;;;;;;;5073516;28;20159;-87
2022/01/06 11:06:24;;;;;;;16.00;4.93;;;;;;;;;;5073774;28;20009;-86
2022/01/06 11:08:51;;;;;;;23.83;8.52;;;;;;;;;;5074636;28;20017;-85
2022/01/06 11:11:30;;;;;;;29.45;12.32;;;;;;;;;;5054782;28;20037;-86
2022/01/06 11:13:56;;;;;;;25.67;7.80;;;;;;;;;;5043743;28;20037;-87
2022/01/06 11:16:21;;;;;;;10.77;4.13;;;;;;;;;;5046125;28;20021;-85
2022/01/06 11:18:57;;;;;;;11.18;3.13;;;;;;;;;;5057989;28;20028;-86
2022/01/06 11:21:35;;;;;;;12.73;3.03;;;;;;;;;;5038874;28;20025;-87
2022/01/06 11:24:16;;;;;;;11.60;2.55;;;;;;;;;;5052090;28;20510;-86
2022/01/06 11:26:44;;;;;;;6.40;2.50;;;;;;;;;;5054090;28;20474;-85
2022/01/06 11:29:12;;;;;;;6.30;2.40;;;;;;;;;;5058411;28;20029;-87
2022/01/06 11:31:41;;;;;;;10.48;2.88;;;;;;;;;;5060368;28;20397;-85
2022/01/06 11:34:15;;;;;;;13.45;3.08;;;;;;;;;;5038195;28;20099;-86
2022/01/06 11:37:21;;;;;;;9.68;2.45;;;;;;;;;;5059848;28;20025;-87
2022/01/06 11:40:07;;;;;;;9.75;3.55;;;;;;;;;;5055360;28;20025;-87
2022/01/06 11:42:33;;;;;;;7.80;2.92;;;;;;;;;;5042166;28;20040;-82
2022/01/06 11:44:58;;;;;;;13.95;5.55;;;;;;;;;;5040129;28;20032;-85
2022/01/06 11:47:36;;;;;;;8.13;2.78;;;;;;;;;;5040125;28;20537;-85
2022/01/06 11:50:10;;;;;;;10.15;3.20;;;;;;;;;;5057352;28;20024;-83
2022/01/06 11:52:36;;;;;;;6.57;2.60;;;;;;;;;;5058444;28;20162;-85
2022/01/06 11:55:11;;;;;;;13.23;5.20;;;;;;;;;;5037764;28;20029;-85
2022/01/06 11:57:38;;;;;;;8.38;2.80;;;;;;;;;;5038540;28;20041;-85
2022/01/06 12:00:18;;;;;;;9.90;2.53;;;;;;;;;;5051099;28;20086;-84
2022/01/06 12:02:55;;;;;;;12.85;2.83;;;;;;;;;;5054381;28;20025;-82
2022/01/06 12:05:20;;;;;;;6.15;1.95;;;;;;;;;;5053116;28;20049;-85
2022/01/06 12:07:51;;;;;;;7.15;2.65;;;;;;;;;;5041341;28;20501;-85
2022/01/06 12:10:17;;;;;;;9.38;2.63;;;;;;;;;;5041612;28;20071;-84
2022/01/06 12:12:42;;;;;;;4.65;2.42;;;;;;;;;;5059452;28;20025;-85
2022/01/06 12:15:13;;;;;;;11.82;3.90;;;;;;;;;;5058955;28;20406;-85
2022/01/06 12:17:48;;;;;;;15.27;2.97;;;;;;;;;;5060744;28;20029;-85
2022/01/06 12:20:22;;;;;;;8.75;2.60;;;;;;;;;;5056101;28;20433;-85
2022/01/06 12:22:48;;;;;;;13.82;3.17;;;;;;;;;;5060255;28;20104;-86
2022/01/06 12:25:14;;;;;;;3.58;2.50;;;;;;;;;;5053970;28;20025;-86
2022/01/06 12:27:48;;;;;;;5.72;1.90;;;;;;;;;;5058229;28;20505;-85
2022/01/06 12:30:16;;;;;;;8.75;2.25;;;;;;;;;;5039674;28;20021;-85
2022/01/06 12:32:41;;;;;;;9.80;2.53;;;;;;;;;;5060264;28;20449;-85
2022/01/06 12:35:41;;;;;;;10.32;2.72;;;;;;;;;;5039499;28;20025;-88
2022/01/06 12:38:09;;;;;;;8.93;2.42;;;;;;;;;;5058016;28;20028;-86
2022/01/06 12:40:40;;;;;;;4.65;2.10;;;;;;;;;;5042111;28;20025;-86
2022/01/06 12:43:25;;;;;;;10.00;2.20;;;;;;;;;;5040464;28;20048;-86
2022/01/06 12:46:12;;;;;;;5.80;2.10;;;;;;;;;;5039854;28;20029;-87
2022/01/06 12:48:43;;;;;;;6.07;2.22;;;;;;;;;;5053916;28;20021;-85
2022/01/06 12:51:12;;;;;;;8.27;2.35;;;;;;;;;;5058273;28;20028;-88
2022/01/06 12:53:43;;;;;;;10.38;2.28;;;;;;;;;;5042122;28;20478;-84
2022/01/06 12:56:22;;;;;;;11.18;2.33;;;;;;;;;;5058405;28;20040;-85
2022/01/06 13:03:02;;;;;;;12.32;2.40;;;;;;;;;;5032662;28;20052;-86
2022/01/06 13:05:51;;;;;;;7.72;2.15;;;;;;;;;;4935345;29;20127;-84
2022/01/06 13:08:17;;;;;;;6.20;2.42;;;;;;;;;;5001821;28;20034;-85
2022/01/06 13:10:42;;;;;;;8.35;2.28;;;;;;;;;;5051646;28;20547;-84
2022/01/06 13:13:08;;;;;;;7.63;2.38;;;;;;;;;;5058146;28;20044;-80
2022/01/06 13:15:34;;;;;;;7.57;2.47;;;;;;;;;;5056601;28;20052;-84
2022/01/06 13:18:00;;;;;;;7.07;1.88;;;;;;;;;;5040340;28;20020;-83
2022/01/06 13:20:25;;;;;;;5.40;1.75;;;;;;;;;;5058500;28;20032;-85
2022/01/06 13:25:24;;;;;;;11.63;4.75;;;;;;;;;;5058811;28;20021;-85
2022/01/06 13:28:06;;;;;;;36.10;9.18;;;;;;;;;;5040829;28;20016;-82
2022/01/06 13:30:31;;;;;;;;;;;;;;;;;;5040894;28;20028;-82
2022/01/06 13:32:58;;;;;;;6.38;2.30;;;;;;;;;;5044689;28;19935;-84
2022/01/06 13:35:23;;;;;;;18.50;5.63;;;;;;;;;;5054434;28;20033;-81
2022/01/06 13:37:49;;;;;;;12.48;2.28;;;;;;;;;;5057890;28;20402;-81
2022/01/06 13:40:15;;;;;;;6.82;2.47;;;;;;;;;;5058944;28;20166;-83
2022/01/06 13:42:44;;;;;;;8.25;2.33;;;;;;;;;;5052646;28;20174;-83
2022/01/06 13:48:19;;;;;;;5.50;2.10;;;;;;;;;;5058103;28;20021;-84
2022/01/06 13:53:26;;;;;;;5.22;2.30;;;;;;;;;;5051618;28;20040;-86
2022/01/06 13:56:32;;;;;;;5.82;2.22;;;;;;;;;;5046347;28;20104;-86
2022/01/06 13:59:02;;;;;;;6.50;2.58;;;;;;;;;;5040068;28;20017;-87
2022/01/06 14:01:29;;;;;;;6.95;2.22;;;;;;;;;;5060438;28;20017;-88
2022/01/06 14:03:56;;;;;;;11.18;2.50;;;;;;;;;;5067189;28;20033;-84
2022/01/06 14:06:22;;;;;;;10.63;2.65;;;;;;;;;;5059262;28;20025;-87
2022/01/06 14:08:47;;;;;;;12.93;2.65;;;;;;;;;;5059399;28;20052;-86
2022/01/06 14:11:15;;;;;;;7.32;4.05;;;;;;;;;;5058676;28;20036;-87
2022/01/06 14:13:43;;;;;;;13.05;4.22;;;;;;;;;;5060472;28;20068;-85
2022/01/06 14:16:09;;;;;;;13.73;5.65;;;;;;;;;;5058939;28;20028;-86
2022/01/06 14:18:35;;;;;;;7.18;2.53;;;;;;;;;;5059758;28;20035;-86
2022/01/06 14:21:01;;;;;;;11.80;2.97;;;;;;;;;;5058661;28;20111;-85
2022/01/06 14:23:29;;;;;;;8.10;2.13;;;;;;;;;;5058018;28;20021;-84
2022/01/06 14:25:56;;;;;;;6.90;2.42;;;;;;;;;;5058285;28;20032;-86
2022/01/06 14:28:22;;;;;;;5.60;2.72;;;;;;;;;;5058212;28;20051;-87
2022/01/06 14:30:47;;;;;;;4.30;2.15;;;;;;;;;;5052264;28;20020;-86
2022/01/06 14:33:13;;;;;;;10.20;2.10;;;;;;;;;;5054003;28;20039;-86
2022/01/06 14:35:38;;;;;;;10.15;2.20;;;;;;;;;;5040653;28;20033;-86
2022/01/06 14:38:04;;;;;;;9.70;2.22;;;;;;;;;;5058188;28;20032;-87
2022/01/06 14:40:31;;;;;;;6.78;2.50;;;;;;;;;;5040188;28;20009;-86
2022/01/06 14:42:58;;;;;;;5.57;2.28;;;;;;;;;;5057636;28;20029;-87
2022/01/06 14:45:26;;;;;;;7.18;2.17;;;;;;;;;;5040102;28;20024;-86
2022/01/06 14:47:52;;;;;;;8.65;2.60;;;;;;;;;;5066751;28;20032;-85
2022/01/06 14:50:17;;;;;;;8.07;2.17;;;;;;;;;;5062016;28;20013;-85
2022/01/06 14:52:44;;;;;;;9.32;2.92;;;;;;;;;;5040004;28;20032;-87
2022/01/06 14:55:10;;;;;;;4.13;2.00;;;;;;;;;;5071950;28;20051;-85
2022/01/06 14:57:36;;;;;;;13.35;2.70;;;;;;;;;;5048328;28;20461;-85
2022/01/06 15:00:04;;;;;;;8.90;2.95;;;;;;;;;;5079618;28;20055;-86
2022/01/06 15:02:29;;;;;;;7.80;2.85;;;;;;;;;;5058638;28;20355;-86
2022/01/06 15:04:54;;;;;;;8.10;2.22;;;;;;;;;;5061853;28;20033;-86
2022/01/06 15:07:20;;;;;;;6.60;2.28;;;;;;;;;;5061221;28;20049;-87
2022/01/06 15:09:51;;;;;;;8.25;2.38;;;;;;;;;;5060239;28;20025;-86
2022/01/06 15:12:17;;;;;;;9.05;2.45;;;;;;;;;;5057776;28;20094;-87
2022/01/06 15:14:43;;;;;;;8.95;2.28;;;;;;;;;;5061556;28;20068;-85
2022/01/06 15:17:08;;;;;;;10.52;3.25;;;;;;;;;;5042416;28;20025;-84
2022/01/06 15:19:33;;;;;;;12.70;2.70;;;;;;;;;;5060825;28;20040;-86
2022/01/06 15:21:59;;;;;;;7.63;2.47;;;;;;;;;;5060316;28;20032;-85
2022/01/06 15:24:24;;;;;;;10.02;2.42;;;;;;;;;;5061054;28;20463;-86
2022/01/06 15:26:50;;;;;;;6.45;2.78;;;;;;;;;;5059795;28;20033;-84
2022/01/06 15:29:15;;;;;;;14.13;3.15;;;;;;;;;;5061059;28;20025;-86
2022/01/06 15:31:40;;;;;;;12.88;4.07;;;;;;;;;;5060206;28;20043;-84
2022/01/06 15:34:06;;;;;;;9.25;5.53;;;;;;;;;;5062365;28;20036;-86
2022/01/06 15:36:32;;;;;;;24.73;7.90;;;;;;;;;;5062559;28;20028;-84
2022/01/06 15:38:58;;;;;;;6.78;3.30;;;;;;;;;;5062784;28;20043;-84